KCMX/CMX METAR and TAF weather

Enter ICAO airport designator
Station Type Date Time Source
KCMX METAR 2019/02/23 01:53 UTC NOAA

KCMX 230153Z AUTO 32006KT 10SM SCT100 M09/M12 A3031 RMK AO2 SLP284 T10891122


Station Type Date Time Source
KCMX Decoded METAR 2019/02/23 01:53 UTC NOAA

HANCOCK HOUGHTON CTY. MEMO, MI, United States (KCMX) 47-10N 088-29W 326M
Feb 22, 2019 - 08:53 PM EST / 2019.02.23 0153 UTC
Wind: from the NW (320 degrees) at 7 MPH (6 KT):0
Visibility: 10 mile(s):0
Sky conditions: partly cloudy
Temperature: 16.0 F (-8.9 C)
Windchill: 6 F (-14 C):1
Dew Point: 10.0 F (-12.2 C)
Relative Humidity: 76%
Pressure (altimeter): 30.31 in. Hg (1026 hPa)
ob: KCMX 230153Z AUTO 32006KT 10SM SCT100 M09/M12 A3031 RMK AO2 SLP284 T10891122
cycle: 2

Station Type Date Time Source
KCMX TAF 2019/02/22 18:42 UTC NOAA

TAF KCMX 221738Z 2218/2318 26008KT P6SM BKN016
FM230000 VRB04KT P6SM BKN100
FM230500 00000KT 5SM BR VCSH OVC035
FM230800 VRB03KT 2SM -SN OVC015
FM231400 12007KT 1 1/2SM -SN OVC010


Example: see airport list